Malaysia Virtual Airlines Airport Information Service

Perth Airport

ICAO: YPPH Country: Australia
Latitude: -31.9403 Longitude: 115.967
Latest Arrival : MH125 (WMKK-YPPH) Latest Departure : MH120 (YPPH-WBKK)


WX CaptureLIVE
Data provided by noaa.gov | Fetched at 20:18:35

METAR : YPPH 122000Z 11010KT 070V130 CAVOK 13/05 Q1025

TAF : YPPH 121704Z 1218/1400 11015G25KT CAVOK FM130000 09018G28KT CAVOK FM130200 09014KT CAVOK


Runway Data for YPPH
Data provided by openaviationdata.com

Runway ID Mag Var Hdg Length Elevation Surface ILS Freq ILS Id ILS Slope
3 -2 15° 11326 ft 67 ft Asphalt 110.1 IPN 3
6 -2 60° 7098 ft 67 ft Asphalt -- -- --
21 -2 195° 11326 ft 67 ft Asphalt 109.5 IGD 3
24 -2 240° 7098 ft 67 ft Asphalt 109.9 IPH 3

Perth Airport, Australia
Use only for reference purposes



Not for navigational purposes.